Time;durP1;ratioP1;P1;durP2;ratioP2;P2;SDS_P1;SDS_P2;PMS_P1;PMS_P2;Temp;Humidity;BMP_temperature;BMP_pressure;BME280_temperature;BME280_humidity;BME280_pressure;Samples;Min_cycle;Max_cycle;Signal;HPM_P1;HPM_P2
2022/11/06 00:00:41;;;;;;;28.90;18.40;;;;;;;18.68;52.26;100530.42;104882;1294;83728;-90
2022/11/06 00:03:06;;;;;;;26.20;18.00;;;;;;;18.68;52.24;100528.43;104750;1296;69978;-90
2022/11/06 00:08:34;;;;;;;29.20;19.00;;;;;;;18.68;52.27;100526.38;104884;1288;70006;-90
2022/11/06 00:11:00;;;;;;;25.90;17.90;;;;;;;18.67;52.35;100527.81;106013;1292;74256;-90
2022/11/06 00:13:25;;;;;;;29.20;18.60;;;;;;;18.67;52.21;100527.09;105274;1290;67874;-90
2022/11/06 00:15:51;;;;;;;28.60;19.10;;;;;;;18.68;52.34;100523.80;105111;1287;70052;-90
2022/11/06 00:18:23;;;;;;;27.30;18.40;;;;;;;18.68;52.31;100527.00;104915;1292;69275;-90
2022/11/06 00:23:28;;;;;;;26.00;18.20;;;;;;;18.68;52.39;100523.94;104822;1287;73747;-90
2022/11/06 00:25:55;;;;;;;27.30;18.80;;;;;;;18.68;52.30;100521.75;104907;1297;70039;-90
2022/11/06 00:28:25;;;;;;;30.30;19.10;;;;;;;18.68;52.30;100522.98;104936;1290;69758;-89
2022/11/06 00:31:10;;;;;;;27.70;19.10;;;;;;;18.68;52.30;100518.39;105048;1285;69878;-90
2022/11/06 00:33:35;;;;;;;30.60;19.10;;;;;;;18.68;52.25;100511.05;105038;1294;69896;-90
2022/11/06 00:36:07;;;;;;;24.10;18.30;;;;;;;18.68;52.32;100516.24;105023;1293;70455;-90
2022/11/06 00:38:32;;;;;;;26.10;18.10;;;;;;;18.68;52.41;100513.19;104706;1296;82993;-90
2022/11/06 00:41:06;;;;;;;26.50;19.30;;;;;;;18.68;52.37;100512.48;104845;1282;70531;-90
2022/11/06 00:43:32;;;;;;;31.00;18.80;;;;;;;18.68;52.38;100509.30;104990;1279;69967;-90
2022/11/06 00:46:02;;;;;;;29.60;19.10;;;;;;;18.67;52.41;100505.80;104934;1279;69980;-90
2022/11/06 00:48:27;;;;;;;27.40;18.90;;;;;;;18.67;52.34;100504.67;104729;1281;75422;-90
2022/11/06 00:51:08;;;;;;;28.90;18.70;;;;;;;18.67;52.36;100507.98;104840;1279;69893;-90
2022/11/06 00:53:33;;;;;;;27.20;18.30;;;;;;;18.67;52.34;100505.89;104633;1294;72608;-90
2022/11/06 00:56:09;;;;;;;31.90;20.30;;;;;;;18.67;52.42;100510.38;105137;1287;68079;-90
2022/11/06 00:58:35;;;;;;;24.60;18.00;;;;;;;18.66;52.32;100503.70;105114;1285;70009;-90
2022/11/06 01:01:29;;;;;;;31.00;19.30;;;;;;;18.66;52.36;100503.95;105019;1293;68556;-90
2022/11/06 01:04:15;;;;;;;28.70;19.50;;;;;;;18.66;52.48;100503.08;105240;1287;84021;-90
2022/11/06 01:06:43;;;;;;;27.30;18.60;;;;;;;18.67;52.40;100509.05;105020;1287;72551;-90
2022/11/06 01:09:10;;;;;;;32.70;19.10;;;;;;;18.66;52.47;100509.30;104778;1285;67324;-90
2022/11/06 01:14:17;;;;;;;27.10;19.10;;;;;;;18.65;52.39;100507.62;104810;1287;74298;-90
2022/11/06 01:16:43;;;;;;;25.30;19.40;;;;;;;18.66;52.43;100510.38;105090;1291;70095;-91
2022/11/06 01:19:10;;;;;;;28.20;19.50;;;;;;;18.65;52.37;100505.11;105046;1284;70011;-90
2022/11/06 01:21:37;;;;;;;29.80;19.20;;;;;;;18.66;52.38;100506.14;104816;1281;69812;-90
2022/11/06 01:24:14;;;;;;;31.50;19.50;;;;;;;18.66;52.48;100509.50;105018;1288;69863;-90
2022/11/06 01:26:47;;;;;;;27.40;18.80;;;;;;;18.66;52.39;100516.38;104738;1295;74450;31
2022/11/06 01:29:14;;;;;;;30.20;18.70;;;;;;;18.66;52.48;100515.83;104845;1295;82934;-89
2022/11/06 01:31:39;;;;;;;28.10;19.30;;;;;;;18.66;52.55;100510.92;104825;1289;72425;-89
2022/11/06 01:34:05;;;;;;;29.70;19.60;;;;;;;18.66;52.50;100513.95;104820;1294;70050;-89
2022/11/06 01:36:31;;;;;;;30.90;19.80;;;;;;;18.66;52.55;100514.39;104858;1290;69969;-89
2022/11/06 01:39:00;;;;;;;24.90;18.70;;;;;;;18.65;52.48;100511.27;104968;1290;69915;-89
2022/11/06 01:47:00;;;;;;;27.80;19.00;;;;;;;18.65;52.51;100516.12;104825;1285;69903;-90
2022/11/06 01:49:26;;;;;;;29.40;19.80;;;;;;;18.64;52.59;100515.70;104974;1288;70014;-90
2022/11/06 01:51:54;;;;;;;30.80;20.70;;;;;;;18.65;52.52;100522.14;105061;1295;69995;-90
2022/11/06 01:54:21;;;;;;;31.20;20.50;;;;;;;18.64;52.55;100522.73;104927;1295;81777;-90
2022/11/06 01:56:53;;;;;;;28.20;19.10;;;;;;;18.65;52.62;100518.05;104932;1287;73891;-90
2022/11/06 01:59:20;;;;;;;30.50;19.80;;;;;;;18.65;52.65;100514.55;105867;1288;69914;-90
2022/11/06 02:01:45;;;;;;;28.50;19.10;;;;;;;18.65;52.62;100517.49;104942;1288;70021;-90
2022/11/06 02:04:16;;;;;;;31.80;20.10;;;;;;;18.65;52.61;100514.75;104845;1284;69941;-91
2022/11/06 02:06:46;;;;;;;;;;;;;;;18.66;52.50;100515.81;105136;1287;82987;-90
2022/11/06 02:09:16;;;;;;;31.10;18.20;;;;;;;18.62;52.62;100517.31;105127;1294;72446;-90
2022/11/06 02:11:44;;;;;;;31.00;19.60;;;;;;;18.63;52.61;100525.27;105041;1295;70092;-90
2022/11/06 02:14:19;;;;;;;32.60;19.30;;;;;;;18.63;52.68;100521.76;104540;1285;70610;-90
2022/11/06 02:17:02;;;;;;;28.90;19.00;;;;;;;18.63;52.56;100524.26;104893;1285;75091;-91
2022/11/06 02:19:56;;;;;;;33.10;19.20;;;;;;;18.63;52.65;100523.99;104940;1287;83831;-90
2022/11/06 02:22:27;;;;;;;31.50;20.40;;;;;;;18.62;52.68;100527.30;104993;1287;72801;-90
2022/11/06 02:25:07;;;;;;;29.80;19.80;;;;;;;18.63;52.68;100530.27;104930;1287;69991;-90
2022/11/06 02:27:33;;;;;;;26.20;19.00;;;;;;;18.63;52.62;100533.78;104866;1293;70104;-90
2022/11/06 02:30:00;;;;;;;27.40;18.70;;;;;;;18.62;52.68;100535.05;104673;1290;70004;-90
2022/11/06 02:32:56;;;;;;;27.40;18.50;;;;;;;18.63;52.61;100535.06;104883;1293;70063;31
2022/11/06 02:37:50;;;;;;;28.40;19.40;;;;;;;18.62;52.69;100543.35;104968;1277;70022;-90
2022/11/06 02:40:20;;;;;;;27.50;18.50;;;;;;;18.62;52.80;100544.48;105078;1293;69898;-90
2022/11/06 02:42:47;;;;;;;26.90;19.10;;;;;;;18.61;52.62;100549.32;104745;1290;74446;-90
2022/11/06 02:45:13;;;;;;;27.90;19.30;;;;;;;18.63;52.80;100547.23;104956;1282;82812;-90
2022/11/06 02:47:42;;;;;;;30.20;19.20;;;;;;;18.62;52.72;100550.14;105138;1284;69981;-90
2022/11/06 02:53:02;;;;;;;27.50;19.70;;;;;;;18.62;52.71;100559.11;104829;1290;69966;-90
2022/11/06 02:55:30;;;;;;;26.50;18.40;;;;;;;18.62;52.73;100557.83;104961;1293;74440;-90
2022/11/06 02:58:05;;;;;;;31.20;19.00;;;;;;;18.62;52.78;100557.67;104860;1296;82870;-90
2022/11/06 03:00:31;;;;;;;28.90;19.60;;;;;;;18.63;52.75;100564.37;104872;1295;72598;-90
2022/11/06 03:03:11;;;;;;;30.30;20.00;;;;;;;18.63;52.73;100559.56;104919;1294;69902;-90
2022/11/06 03:06:06;;;;;;;31.60;20.10;;;;;;;18.63;52.68;100564.30;105037;1279;69701;-90
2022/11/06 03:08:38;;;;;;;32.50;20.20;;;;;;;18.62;52.70;100567.31;104956;1287;74242;-88
2022/11/06 03:16:57;;;;;;;;;;;;;;;18.61;52.77;100568.41;104729;1285;68478;-91
2022/11/06 03:19:34;;;;;;;30.00;19.30;;;;;;;18.59;52.75;100568.05;105105;1282;70007;-91
2022/11/06 03:22:26;;;;;;;28.30;19.50;;;;;;;18.60;52.79;100567.99;104953;1288;75229;-91
2022/11/06 03:25:03;;;;;;;31.40;19.90;;;;;;;18.59;52.76;100570.13;104727;1293;82946;-90
2022/11/06 03:27:36;;;;;;;28.40;19.30;;;;;;;18.59;52.76;100569.31;104764;1291;72534;-90
2022/11/06 03:30:09;;;;;;;28.00;19.00;;;;;;;18.60;52.76;100569.36;104936;1277;68458;-90
2022/11/06 03:32:43;;;;;;;28.20;19.40;;;;;;;18.60;52.74;100569.11;104974;1285;70001;-90
2022/11/06 03:37:51;;;;;;;27.70;18.90;;;;;;;18.60;52.83;100572.73;104937;1293;82915;-91
2022/11/06 03:40:17;;;;;;;29.90;19.80;;;;;;;18.60;52.81;100570.39;104940;1293;72607;-90
2022/11/06 03:42:43;;;;;;;31.70;20.50;;;;;;;18.60;52.82;100571.81;105184;1293;69908;-91
2022/11/06 03:45:11;;;;;;;30.10;19.50;;;;;;;18.60;52.81;100572.70;105017;1290;70357;-91
2022/11/06 03:47:42;;;;;;;31.80;20.30;;;;;;;18.60;52.77;100575.33;104473;1295;75614;-90
2022/11/06 03:50:19;;;;;;;30.40;20.00;;;;;;;18.60;52.88;100575.02;104427;1291;82812;-91
2022/11/06 03:52:48;;;;;;;31.60;19.80;;;;;;;18.60;52.83;100582.07;104389;1292;72530;-90
2022/11/06 03:55:17;;;;;;;32.40;19.10;;;;;;;18.60;52.73;100576.30;104497;1295;69990;-91
2022/11/06 03:57:55;;;;;;;28.60;19.20;;;;;;;18.60;52.86;100581.20;106037;1290;67436;-91
2022/11/06 04:00:21;;;;;;;28.00;19.30;;;;;;;18.60;52.78;100579.88;104883;1291;74620;-91
2022/11/06 04:03:03;;;;;;;32.10;20.00;;;;;;;18.60;52.84;100578.30;104658;1297;70021;-91
2022/11/06 04:05:38;;;;;;;28.40;19.40;;;;;;;18.60;52.82;100575.09;104436;1296;72485;-91
2022/11/06 04:16:18;;;;;;;31.60;19.70;;;;;;;18.59;52.86;100569.06;104717;1290;82900;-91
2022/11/06 04:18:44;;;;;;;30.30;19.40;;;;;;;18.59;52.87;100569.31;104560;1296;70056;-90
2022/11/06 04:21:27;;;;;;;30.10;19.30;;;;;;;18.59;52.86;100571.80;104714;1293;70029;-90
2022/11/06 04:27:37;;;;;;;31.10;19.20;;;;;;;18.58;52.81;100568.89;105154;1293;74629;-90
2022/11/06 04:30:03;;;;;;;26.40;18.30;;;;;;;18.57;52.83;100569.50;104998;1295;83146;-90
2022/11/06 04:32:32;;;;;;;26.80;19.00;;;;;;;18.58;52.83;100571.17;105060;1279;67869;-90
2022/11/06 04:35:21;;;;;;;31.70;18.80;;;;;;;18.57;52.88;100573.57;105037;1287;69859;31
2022/11/06 04:40:41;;;;;;;28.10;18.30;;;;;;;18.57;52.86;100580.65;104911;1285;75134;-90
2022/11/06 04:43:21;;;;;;;25.00;18.20;;;;;;;18.57;52.85;100582.55;105062;1293;82870;-90
2022/11/06 04:45:48;;;;;;;31.30;19.10;;;;;;;18.58;52.87;100586.22;104871;1288;73226;-91
2022/11/06 04:48:14;;;;;;;28.60;18.00;;;;;;;18.57;52.91;100587.94;105041;1285;69938;-90
2022/11/06 04:50:46;;;;;;;30.00;18.20;;;;;;;18.58;52.93;100589.02;104763;1277;70034;-90
2022/11/06 04:53:12;;;;;;;28.80;17.80;;;;;;;18.57;52.87;100590.18;104900;1293;74279;-89
2022/11/06 04:55:45;;;;;;;27.20;18.20;;;;;;;18.58;52.91;100589.11;104632;1288;67702;-90
2022/11/06 04:58:25;;;;;;;28.60;17.20;;;;;;;18.58;52.88;100591.91;104432;1287;72480;-90
2022/11/06 05:00:51;;;;;;;25.90;17.60;;;;;;;18.57;52.95;100592.58;104991;1288;70089;-90
2022/11/06 05:03:16;;;;;;;26.90;17.30;;;;;;;18.57;52.82;100593.55;104854;1287;70613;-91
2022/11/06 05:05:42;;;;;;;27.70;17.60;;;;;;;18.57;52.85;100598.35;104929;1288;69859;-90
2022/11/06 05:08:15;;;;;;;26.80;17.90;;;;;;;18.57;52.95;100594.41;104857;1292;70044;-90
2022/11/06 05:13:22;;;;;;;29.90;17.70;;;;;;;18.56;52.92;100596.08;104718;1294;70023;-90
2022/11/06 05:15:48;;;;;;;26.90;16.80;;;;;;;18.57;52.84;100597.57;104992;1284;70101;-90
2022/11/06 05:18:14;;;;;;;28.40;17.50;;;;;;;18.57;52.91;100598.34;105032;1279;70007;-91
2022/11/06 05:20:39;;;;;;;27.20;16.60;;;;;;;18.57;52.94;100599.09;105090;1287;69983;-90
2022/11/06 05:23:05;;;;;;;27.30;17.10;;;;;;;18.57;52.95;100601.23;104916;1293;69864;-89
2022/11/06 05:25:35;;;;;;;23.20;17.10;;;;;;;18.57;52.90;100606.84;104554;1284;70091;-89
2022/11/06 05:28:01;;;;;;;30.70;17.10;;;;;;;18.57;52.98;100612.52;104925;1288;82833;-90
2022/11/06 05:30:27;;;;;;;27.10;17.30;;;;;;;18.57;52.87;100620.30;104921;1293;70018;-90
2022/11/06 05:32:53;;;;;;;26.40;16.80;;;;;;;18.56;52.96;100624.16;105061;1294;70061;-90
2022/11/06 05:35:19;;;;;;;27.90;17.10;;;;;;;18.57;52.90;100631.92;105106;1295;69958;-91
2022/11/06 05:38:00;;;;;;;25.10;16.80;;;;;;;18.57;52.97;100632.94;104614;1291;70523;31
2022/11/06 05:40:26;;;;;;;25.90;16.50;;;;;;;18.57;53.00;100641.29;104707;1294;82407;-90
2022/11/06 05:42:51;;;;;;;25.10;16.00;;;;;;;18.57;53.01;100645.66;104778;1292;320818;-91
2022/11/06 05:45:17;;;;;;;26.70;16.10;;;;;;;18.57;52.91;100652.09;105031;1288;69986;-90
2022/11/06 05:47:42;;;;;;;26.10;16.80;;;;;;;18.57;52.89;100655.52;104983;1287;70089;-89
2022/11/06 05:50:08;;;;;;;24.50;16.10;;;;;;;18.58;52.91;100657.09;105169;1284;70042;-90
2022/11/06 05:52:49;;;;;;;27.90;16.90;;;;;;;18.58;52.92;100659.39;104639;1291;73608;-90
2022/11/06 05:55:15;;;;;;;24.20;16.00;;;;;;;18.58;52.81;100658.11;105819;1294;69789;-90
2022/11/06 05:57:41;;;;;;;26.60;16.20;;;;;;;18.58;52.94;100658.68;105914;1284;69995;-91
2022/11/06 06:00:11;;;;;;;22.80;15.90;;;;;;;18.58;53.00;100658.27;105020;1288;68357;-91
2022/11/06 06:02:37;;;;;;;31.40;16.10;;;;;;;18.58;52.96;100664.30;105259;1294;83810;-90
2022/11/06 06:05:03;;;;;;;24.40;15.20;;;;;;;18.58;52.92;100674.58;105171;1292;68613;-91
2022/11/06 06:10:10;;;;;;;23.50;15.70;;;;;;;18.59;52.97;100679.78;105106;1282;68198;-91
2022/11/06 06:12:35;;;;;;;26.10;15.90;;;;;;;18.58;52.88;100679.48;105032;1280;74552;-90
2022/11/06 06:15:01;;;;;;;25.70;15.80;;;;;;;18.58;52.94;100680.70;104919;1290;67662;-91
2022/11/06 06:17:30;;;;;;;26.00;15.20;;;;;;;18.58;52.89;100687.64;105233;1290;69908;-91
2022/11/06 06:20:04;;;;;;;22.10;15.20;;;;;;;18.58;52.90;100691.55;105136;1286;70000;-90
2022/11/06 06:25:10;;;;;;;25.00;15.20;;;;;;;18.58;52.93;100703.17;105340;1295;73675;-90
2022/11/06 06:27:36;;;;;;;24.80;15.00;;;;;;;18.58;52.84;100702.61;105271;1288;70094;-90
2022/11/06 06:30:02;;;;;;;25.10;14.30;;;;;;;18.59;52.94;100705.48;105209;1287;70011;-91
2022/11/06 06:32:28;;;;;;;23.50;15.40;;;;;;;18.58;52.95;100709.35;105087;1287;70059;-90
2022/11/06 06:34:53;;;;;;;23.90;15.30;;;;;;;18.59;53.01;100704.36;105107;1295;69912;-90
2022/11/06 06:37:19;;;;;;;25.00;15.40;;;;;;;18.59;52.99;100711.70;104795;1294;70008;-90
2022/11/06 06:39:44;;;;;;;22.90;14.50;;;;;;;18.59;53.00;100714.19;105127;1290;72333;-90
2022/11/06 06:42:10;;;;;;;23.10;14.70;;;;;;;18.59;52.94;100715.22;104956;1282;70044;-90
2022/11/06 06:44:36;;;;;;;21.40;14.50;;;;;;;18.59;53.00;100716.03;105059;1288;70054;-90
2022/11/06 06:47:01;;;;;;;24.20;14.20;;;;;;;18.59;52.97;100715.11;105203;1287;70018;-90
2022/11/06 06:52:01;;;;;;;22.30;14.00;;;;;;;18.59;52.88;100722.81;104978;1284;69916;-90
2022/11/06 06:54:26;;;;;;;22.90;14.20;;;;;;;18.59;52.97;100724.95;105053;1288;70065;-90
2022/11/06 06:56:52;;;;;;;19.60;13.90;;;;;;;18.59;52.81;100724.19;105193;1288;69893;-90
2022/11/06 06:59:17;;;;;;;19.50;13.90;;;;;;;18.59;52.88;100727.86;105480;1287;69896;-90
2022/11/06 07:01:43;;;;;;;24.00;14.50;;;;;;;18.59;52.90;100728.83;105071;1294;70041;-90
2022/11/06 07:04:09;;;;;;;22.40;14.50;;;;;;;18.59;52.90;100729.23;105037;1287;69973;-90
2022/11/06 07:06:35;;;;;;;28.80;14.20;;;;;;;18.60;52.86;100728.73;105076;1291;69967;-89
2022/11/06 07:09:00;;;;;;;22.80;14.50;;;;;;;18.59;52.91;100729.02;105233;1294;69993;-90
2022/11/06 07:11:25;;;;;;;22.30;13.50;;;;;;;18.59;52.89;100733.47;104990;1294;70497;-90
2022/11/06 07:13:55;;;;;;;23.30;14.30;;;;;;;18.59;52.91;100731.77;105070;1285;70493;-90
2022/11/06 07:18:55;;;;;;;23.10;13.50;;;;;;;18.59;52.92;100732.74;105265;1287;82842;-90
2022/11/06 07:21:25;;;;;;;21.60;13.40;;;;;;;18.60;52.87;100736.27;105272;1291;72582;-91
2022/11/06 07:23:50;;;;;;;19.90;13.70;;;;;;;18.59;52.85;100736.98;105277;1290;69830;-90
2022/11/06 07:26:16;;;;;;;25.20;14.00;;;;;;;18.60;52.95;100736.16;105129;1294;70024;-90
2022/11/06 07:28:47;;;;;;;25.70;14.50;;;;;;;18.60;52.86;100739.54;105063;1291;69865;-91
2022/11/06 07:33:54;;;;;;;22.20;14.30;;;;;;;18.60;52.87;100736.02;104740;1294;72514;-90
2022/11/06 07:36:20;;;;;;;21.30;13.70;;;;;;;18.59;52.90;100736.98;105104;1294;70109;-90
2022/11/06 07:38:45;;;;;;;22.10;14.00;;;;;;;18.60;52.93;100735.91;105141;1294;70076;-90
2022/11/06 07:41:12;;;;;;;21.70;14.10;;;;;;;18.58;52.88;100734.41;105110;1291;68577;-90
2022/11/06 07:43:38;;;;;;;24.80;13.50;;;;;;;18.60;52.88;100741.84;105144;1293;69963;-89
2022/11/06 07:46:05;;;;;;;22.10;13.60;;;;;;;18.60;52.79;100739.98;104818;1293;69985;-90
2022/11/06 07:48:31;;;;;;;17.90;12.90;;;;;;;18.60;52.89;100741.58;105120;1291;68599;-89
2022/11/06 07:50:56;;;;;;;22.90;13.50;;;;;;;18.60;52.76;100742.30;105240;1292;69990;-89
2022/11/06 07:53:22;;;;;;;22.00;14.00;;;;;;;18.60;52.83;100742.55;106445;1285;67673;-90
2022/11/06 07:55:52;;;;;;;20.50;13.10;;;;;;;18.60;52.94;100746.02;106443;1290;69971;-90
2022/11/06 07:58:22;;;;;;;21.60;13.90;;;;;;;18.61;52.88;100748.02;105259;1285;69824;31
2022/11/06 08:00:52;;;;;;;21.10;13.90;;;;;;;18.61;52.96;100744.24;105564;1290;69983;-90
2022/11/06 08:03:17;;;;;;;20.00;13.40;;;;;;;18.62;52.81;100747.92;105614;1287;74326;-90
2022/11/06 08:05:43;;;;;;;23.10;13.40;;;;;;;18.62;52.85;100747.27;105482;1285;69962;-89
2022/11/06 08:08:09;;;;;;;22.60;13.40;;;;;;;18.63;52.86;100749.92;105127;1282;71406;-90
2022/11/06 08:10:39;;;;;;;19.70;13.90;;;;;;;18.63;52.83;100751.67;105191;1278;68091;-89
2022/11/06 08:15:46;;;;;;;23.70;12.90;;;;;;;18.64;52.72;100759.58;104726;1294;74377;-90
2022/11/06 08:18:11;;;;;;;20.40;14.20;;;;;;;18.64;52.80;100756.05;104856;1284;70068;-90
2022/11/06 08:20:37;;;;;;;22.50;13.00;;;;;;;18.64;52.84;100761.97;104658;1288;70751;-90
2022/11/06 08:23:05;;;;;;;23.10;13.50;;;;;;;18.63;52.78;100764.16;104609;1292;70018;-90
2022/11/06 08:25:31;;;;;;;22.40;13.10;;;;;;;18.63;52.77;100761.55;104716;1291;69978;-90
2022/11/06 08:27:57;;;;;;;19.70;13.10;;;;;;;18.63;52.81;100769.86;104693;1295;68470;-90
2022/11/06 08:30:22;;;;;;;18.90;13.10;;;;;;;18.62;52.70;100765.98;104661;1294;70143;-90
2022/11/06 08:32:50;;;;;;;18.80;12.70;;;;;;;18.62;52.64;100764.86;104616;1291;69947;-90
2022/11/06 08:35:16;;;;;;;18.50;13.40;;;;;;;18.62;52.76;100774.38;104746;1287;69842;-90
2022/11/06 08:37:41;;;;;;;21.50;13.30;;;;;;;18.62;52.76;100773.11;104673;1291;69981;-90
2022/11/06 08:40:07;;;;;;;19.60;13.70;;;;;;;18.61;52.81;100774.84;104723;1294;70005;-90
2022/11/06 08:42:33;;;;;;;22.40;13.60;;;;;;;18.61;52.72;100774.01;104589;1287;69978;-90
2022/11/06 08:44:58;;;;;;;22.70;12.90;;;;;;;18.61;52.77;100780.95;104808;1288;70145;-90
2022/11/06 08:47:24;;;;;;;19.40;12.60;;;;;;;18.61;52.73;100786.80;104831;1290;74453;-90
2022/11/06 08:49:49;;;;;;;21.50;13.00;;;;;;;18.61;52.71;100781.60;104782;1292;70080;-90
2022/11/06 08:54:47;;;;;;;21.30;12.40;;;;;;;18.61;52.70;100786.23;104664;1296;70011;-90
2022/11/06 08:57:13;;;;;;;19.50;12.70;;;;;;;18.60;52.67;100786.18;104992;1287;69979;-90
2022/11/06 08:59:38;;;;;;;20.60;12.90;;;;;;;18.60;52.67;100787.70;105019;1294;70018;-90
2022/11/06 09:02:04;;;;;;;19.80;12.40;;;;;;;18.61;52.64;100790.10;104792;1289;68492;-89
2022/11/06 09:04:29;;;;;;;20.20;13.10;;;;;;;18.61;52.60;100793.38;105071;1279;70062;-89
2022/11/06 09:09:30;;;;;;;19.80;12.80;;;;;;;18.61;52.75;100793.42;104797;1285;75476;-89
2022/11/06 09:11:57;;;;;;;19.60;13.00;;;;;;;18.61;52.67;100794.95;104882;1287;82873;-88
2022/11/06 09:14:23;;;;;;;19.60;12.60;;;;;;;18.61;52.68;100794.25;104985;1285;72477;-90
2022/11/06 09:16:53;;;;;;;18.70;12.80;;;;;;;18.61;52.69;100794.55;105031;1292;70025;-90
2022/11/06 09:19:18;;;;;;;20.20;12.70;;;;;;;18.61;52.71;100796.08;105081;1288;69913;-90
2022/11/06 09:21:44;;;;;;;19.50;13.50;;;;;;;18.61;52.62;100790.48;104748;1292;70099;-90
2022/11/06 09:24:14;;;;;;;19.00;12.70;;;;;;;18.61;52.70;100790.06;105084;1287;68304;-90
2022/11/06 09:26:39;;;;;;;23.10;13.00;;;;;;;18.62;52.67;100789.55;105105;1278;72564;-90
2022/11/06 09:29:05;;;;;;;18.90;12.80;;;;;;;18.62;52.65;100789.63;105098;1291;70022;-89
2022/11/06 09:31:30;;;;;;;20.90;13.20;;;;;;;18.61;52.68;100785.11;105132;1287;70206;-90
2022/11/06 09:34:02;;;;;;;18.60;12.90;;;;;;;18.62;52.65;100794.37;104767;1288;69989;31
2022/11/06 09:36:27;;;;;;;22.80;12.80;;;;;;;18.62;52.61;100791.77;104928;1293;83191;-89
2022/11/06 09:38:53;;;;;;;18.30;13.20;;;;;;;18.63;52.66;100792.29;105084;1288;70126;-90
2022/11/06 09:41:43;;;;;;;23.00;12.80;;;;;;;18.63;52.60;100792.19;104826;1289;70102;-90
2022/11/06 09:44:23;;;;;;;18.70;12.70;;;;;;;18.63;52.63;100794.83;105197;1287;68223;-89
2022/11/06 09:46:53;;;;;;;18.20;12.40;;;;;;;18.64;52.61;100789.55;105089;1285;75334;-89
2022/11/06 09:49:35;;;;;;;22.40;13.00;;;;;;;18.64;52.58;100790.16;105179;1288;83152;-90
2022/11/06 09:52:28;;;;;;;22.60;13.10;;;;;;;18.65;52.59;100786.50;104839;1293;72359;31
2022/11/06 09:55:09;;;;;;;18.30;12.30;;;;;;;18.64;52.61;100785.98;104991;1291;67932;31
2022/11/06 10:00:22;;;;;;;18.90;12.70;;;;;;;18.64;52.56;100785.42;105658;1281;74502;-90
2022/11/06 10:03:01;;;;;;;20.20;13.10;;;;;;;18.64;52.58;100785.58;105498;1287;69855;-90
2022/11/06 10:05:29;;;;;;;17.40;12.40;;;;;;;18.65;52.51;100788.64;105003;1293;72539;-89
2022/11/06 10:08:00;;;;;;;19.60;12.70;;;;;;;18.66;52.64;100790.13;105198;1294;70028;-90
2022/11/06 10:10:30;;;;;;;18.40;12.60;;;;;;;18.66;52.53;100786.86;105065;1287;69906;-90
2022/11/06 10:13:32;;;;;;;19.70;12.30;;;;;;;18.66;52.56;100786.20;104863;1286;74345;-87
2022/11/06 10:16:36;;;;;;;15.60;12.40;;;;;;;18.66;52.48;100788.85;105044;1285;82940;-90
2022/11/06 10:19:27;;;;;;;21.90;12.60;;;;;;;18.66;52.53;100783.10;105071;1293;72339;-91
2022/11/06 10:22:06;;;;;;;15.90;12.00;;;;;;;18.66;52.47;100780.60;104842;1287;69926;-88
2022/11/06 10:27:26;;;;;;;17.40;12.70;;;;;;;18.67;52.52;100777.91;104881;1295;74489;-90
2022/11/06 10:30:04;;;;;;;20.40;12.90;;;;;;;18.66;52.53;100772.65;105090;1287;83611;-90
2022/11/06 10:32:33;;;;;;;20.60;13.30;;;;;;;18.67;52.45;100773.06;105037;1287;72537;-90
2022/11/06 10:35:04;;;;;;;18.10;12.30;;;;;;;18.68;52.54;100771.29;105124;1293;69963;-90
2022/11/06 10:37:34;;;;;;;22.50;12.90;;;;;;;18.69;52.47;100771.56;104878;1290;69999;-90
2022/11/06 10:40:04;;;;;;;22.60;12.80;;;;;;;18.68;52.51;100768.20;105153;1291;74496;-89
2022/11/06 10:45:15;;;;;;;20.10;12.40;;;;;;;18.70;52.56;100763.73;104949;1295;72281;-89
2022/11/06 10:47:52;;;;;;;18.40;12.30;;;;;;;18.70;52.53;100764.04;105113;1288;69944;-89
2022/11/06 10:50:18;;;;;;;20.10;12.30;;;;;;;18.70;52.47;100753.85;105337;1288;70108;-89
2022/11/06 10:52:56;;;;;;;20.50;12.90;;;;;;;18.70;52.51;100752.42;105106;1274;67287;-89
2022/11/06 10:55:40;;;;;;;19.00;12.60;;;;;;;18.71;52.37;100754.51;105041;1288;82050;-89
2022/11/06 10:58:18;;;;;;;18.00;12.30;;;;;;;18.71;52.40;100754.92;105061;1287;73437;-89
2022/11/06 11:00:44;;;;;;;17.70;13.00;;;;;;;18.71;52.47;100750.60;104794;1295;69950;-89
2022/11/06 11:05:59;;;;;;;23.30;13.30;;;;;;;18.72;52.34;100747.96;105558;1276;75119;-89
2022/11/06 11:08:34;;;;;;;19.50;12.80;;;;;;;18.73;52.48;100744.26;105350;1278;69821;-89
2022/11/06 11:11:13;;;;;;;19.40;12.70;;;;;;;18.74;52.34;100741.71;105364;1287;72445;-90
2022/11/06 11:13:49;;;;;;;17.40;12.90;;;;;;;18.74;52.45;100741.46;105102;1282;69950;-89
2022/11/06 11:16:17;;;;;;;19.70;13.90;;;;;;;18.75;52.44;100740.61;105072;1289;69969;-90
2022/11/06 11:18:43;;;;;;;21.50;12.90;;;;;;;18.74;52.41;100738.77;105127;1285;74618;-90
2022/11/06 11:21:12;;;;;;;23.30;13.20;;;;;;;18.75;52.46;100730.98;104768;1288;70037;-89
2022/11/06 11:23:37;;;;;;;23.00;13.30;;;;;;;18.75;52.40;100727.52;104996;1285;72542;-89
2022/11/06 11:26:23;;;;;;;17.70;12.00;;;;;;;18.76;52.46;100727.98;105033;1285;70026;-89
2022/11/06 11:28:58;;;;;;;22.80;12.80;;;;;;;18.76;52.45;100721.96;105497;1287;70011;-89
2022/11/06 11:31:28;;;;;;;20.80;13.20;;;;;;;18.76;52.53;100721.13;105522;1288;74645;-89
2022/11/06 11:33:55;;;;;;;21.80;13.10;;;;;;;18.77;52.52;100723.11;105213;1281;83756;-89
2022/11/06 11:39:01;;;;;;;19.90;13.00;;;;;;;18.77;52.50;100721.23;104691;1287;70366;-89
2022/11/06 11:41:27;;;;;;;19.40;13.10;;;;;;;18.78;52.43;100718.68;105149;1283;70097;-91
2022/11/06 11:44:06;;;;;;;18.60;13.00;;;;;;;18.78;52.42;100718.13;105085;1288;70018;-90
2022/11/06 11:46:32;;;;;;;19.10;12.40;;;;;;;18.78;52.50;100716.39;105220;1288;82705;-89
2022/11/06 11:48:58;;;;;;;20.60;13.00;;;;;;;18.79;52.36;100716.64;105164;1279;68661;-89
2022/11/06 11:51:37;;;;;;;24.20;12.70;;;;;;;18.77;52.49;100713.21;104827;1288;70471;31
2022/11/06 11:54:05;;;;;;;19.60;12.70;;;;;;;18.79;52.44;100718.19;105268;1296;70162;-89
2022/11/06 11:56:31;;;;;;;20.90;13.10;;;;;;;18.79;52.42;100712.02;105743;1290;75586;-89
2022/11/06 11:59:00;;;;;;;22.40;12.60;;;;;;;18.79;52.56;100711.35;105475;1288;82773;-91
2022/11/06 12:01:35;;;;;;;21.90;12.70;;;;;;;18.79;52.45;100709.77;105390;1288;69985;-90
2022/11/06 12:04:01;;;;;;;22.30;12.80;;;;;;;18.80;52.50;100711.96;105230;1289;69833;-90
2022/11/06 12:06:30;;;;;;;22.00;13.60;;;;;;;18.80;52.48;100710.29;105063;1288;70013;31
2022/11/06 12:08:56;;;;;;;17.70;12.50;;;;;;;18.79;52.50;100710.23;105294;1288;74293;-90
2022/11/06 12:11:24;;;;;;;19.50;12.90;;;;;;;18.80;52.47;100716.45;105656;1290;69980;-90
2022/11/06 12:14:15;;;;;;;18.70;12.70;;;;;;;18.79;52.50;100712.16;105398;1290;72917;-89
2022/11/06 12:16:42;;;;;;;20.60;12.90;;;;;;;18.79;52.37;100715.52;105210;1291;69886;-89
2022/11/06 12:19:07;;;;;;;22.70;12.00;;;;;;;18.79;52.49;100713.98;105045;1291;69905;-89
2022/11/06 12:21:34;;;;;;;21.30;12.50;;;;;;;18.79;52.47;100713.69;105062;1276;70018;-89
2022/11/06 12:26:57;;;;;;;17.90;12.00;;;;;;;18.79;52.52;100718.89;104917;1294;72660;-89
2022/11/06 12:38:56;;;;;;;16.70;12.00;;;;;;;18.77;52.39;100720.55;104879;1295;81749;-90
2022/11/06 12:41:33;;;;;;;17.70;13.00;;;;;;;18.76;52.33;100722.08;105003;1293;72332;-90
2022/11/06 12:43:58;;;;;;;18.20;11.80;;;;;;;18.77;52.40;100725.60;105135;1292;69933;-90
2022/11/06 12:46:33;;;;;;;19.70;12.50;;;;;;;18.76;52.32;100722.44;105346;1281;69830;-90